sensor_id;sensor_type;location;lat;lon;timestamp;temperature;humidity
10306;DHT22;5198;52.382;9.020;2024-03-02T04:46:21;6.70;99.90
10306;DHT22;5198;52.382;9.020;2024-03-02T04:50:24;6.70;99.90
10306;DHT22;5198;52.382;9.020;2024-03-02T04:54:27;6.70;99.90
10306;DHT22;5198;52.382;9.020;2024-03-02T04:58:30;6.90;99.90
10306;DHT22;5198;52.382;9.020;2024-03-02T05:02:34;6.90;99.90
10306;DHT22;5198;52.382;9.020;2024-03-02T05:06:38;6.90;99.90
10306;DHT22;5198;52.382;9.020;2024-03-02T05:10:42;7.00;99.90
10306;DHT22;5198;52.382;9.020;2024-03-02T05:14:45;7.00;99.90
10306;DHT22;5198;52.382;9.020;2024-03-02T05:18:49;7.10;99.90
10306;DHT22;5198;52.382;9.020;2024-03-02T05:22:52;7.10;99.90
10306;DHT22;5198;52.382;9.020;2024-03-02T05:26:55;7.10;99.90
10306;DHT22;5198;52.382;9.020;2024-03-02T05:30:58;7.10;99.90
10306;DHT22;5198;52.382;9.020;2024-03-02T05:35:02;7.20;99.90
10306;DHT22;5198;52.382;9.020;2024-03-02T05:39:06;7.20;99.90
10306;DHT22;5198;52.382;9.020;2024-03-02T05:43:11;7.20;99.90
10306;DHT22;5198;52.382;9.020;2024-03-02T05:47:14;7.20;99.90
10306;DHT22;5198;52.382;9.020;2024-03-02T05:51:19;7.20;99.90
10306;DHT22;5198;52.382;9.020;2024-03-02T05:55:22;7.10;99.90
10306;DHT22;5198;52.382;9.020;2024-03-02T05:59:25;7.10;99.90
10306;DHT22;5198;52.382;9.020;2024-03-02T06:03:28;7.10;99.90
10306;DHT22;5198;52.382;9.020;2024-03-02T06:07:32;7.10;99.90
10306;DHT22;5198;52.382;9.020;2024-03-02T06:11:35;7.10;99.90
10306;DHT22;5198;52.382;9.020;2024-03-02T06:15:38;7.00;99.90
10306;DHT22;5198;52.382;9.020;2024-03-02T06:19:41;7.10;99.90
10306;DHT22;5198;52.382;9.020;2024-03-02T06:23:45;7.00;99.90
10306;DHT22;5198;52.382;9.020;2024-03-02T06:27:48;7.00;99.90
10306;DHT22;5198;52.382;9.020;2024-03-02T06:31:51;7.00;99.90
10306;DHT22;5198;52.382;9.020;2024-03-02T06:35:56;7.00;99.90
10306;DHT22;5198;52.382;9.020;2024-03-02T06:40:00;7.10;99.90
10306;DHT22;5198;52.382;9.020;2024-03-02T06:44:03;7.10;99.90
10306;DHT22;5198;52.382;9.020;2024-03-02T06:48:07;7.20;99.90
10306;DHT22;5198;52.382;9.020;2024-03-02T06:52:10;7.20;99.90
10306;DHT22;5198;52.382;9.020;2024-03-02T06:56:15;7.20;99.90
10306;DHT22;5198;52.382;9.020;2024-03-02T07:00:18;7.30;99.90
10306;DHT22;5198;52.382;9.020;2024-03-02T07:04:52;7.40;99.90
10306;DHT22;5198;52.382;9.020;2024-03-02T07:09:23;7.70;99.90
10306;DHT22;5198;52.382;9.020;2024-03-02T07:13:28;7.70;99.90
10306;DHT22;5198;52.382;9.020;2024-03-02T07:17:31;7.80;99.90
10306;DHT22;5198;52.382;9.020;2024-03-02T07:21:34;8.00;99.90
10306;DHT22;5198;52.382;9.020;2024-03-02T07:25:37;8.30;99.90
10306;DHT22;5198;52.382;9.020;2024-03-02T07:29:45;8.70;99.90
10306;DHT22;5198;52.382;9.020;2024-03-02T07:33:47;9.30;99.90
10306;DHT22;5198;52.382;9.020;2024-03-02T07:37:50;9.30;99.90
10306;DHT22;5198;52.382;9.020;2024-03-02T07:41:53;9.60;99.90
10306;DHT22;5198;52.382;9.020;2024-03-02T07:45:58;9.70;99.90
10306;DHT22;5198;52.382;9.020;2024-03-02T07:50:01;9.70;99.90
10306;DHT22;5198;52.382;9.020;2024-03-02T07:54:04;9.70;99.90
10306;DHT22;5198;52.382;9.020;2024-03-02T07:58:07;9.60;99.90
10306;DHT22;5198;52.382;9.020;2024-03-02T08:02:11;9.50;99.90
10306;DHT22;5198;52.382;9.020;2024-03-02T08:06:15;9.50;99.90
10306;DHT22;5198;52.382;9.020;2024-03-02T08:10:18;9.40;99.90
10306;DHT22;5198;52.382;9.020;2024-03-02T08:14:20;9.40;99.90
10306;DHT22;5198;52.382;9.020;2024-03-02T15:16:34;17.10;99.90
10306;DHT22;5198;52.382;9.020;2024-03-02T17:02:54;15.70;99.90
10306;DHT22;5198;52.382;9.020;2024-03-02T17:06:56;15.50;99.90
10306;DHT22;5198;52.382;9.020;2024-03-02T17:11:00;15.30;99.90
10306;DHT22;5198;52.382;9.020;2024-03-02T17:15:06;15.10;99.90
10306;DHT22;5198;52.382;9.020;2024-03-02T17:19:10;14.80;99.90
10306;DHT22;5198;52.382;9.020;2024-03-02T17:23:13;14.70;99.90
10306;DHT22;5198;52.382;9.020;2024-03-02T17:27:17;14.50;99.90
10306;DHT22;5198;52.382;9.020;2024-03-02T17:31:20;14.30;99.90
10306;DHT22;5198;52.382;9.020;2024-03-02T17:35:36;14.20;99.90
10306;DHT22;5198;52.382;9.020;2024-03-02T17:39:39;14.00;99.90
10306;DHT22;5198;52.382;9.020;2024-03-02T17:43:41;13.90;99.90
10306;DHT22;5198;52.382;9.020;2024-03-02T17:47:46;13.70;99.90
10306;DHT22;5198;52.382;9.020;2024-03-02T17:51:51;13.60;99.90
10306;DHT22;5198;52.382;9.020;2024-03-02T17:56:03;13.50;99.90
10306;DHT22;5198;52.382;9.020;2024-03-02T18:00:09;13.40;99.90
10306;DHT22;5198;52.382;9.020;2024-03-02T18:04:15;13.30;99.90
10306;DHT22;5198;52.382;9.020;2024-03-02T18:08:20;13.20;99.90
10306;DHT22;5198;52.382;9.020;2024-03-02T18:12:26;13.10;99.90
10306;DHT22;5198;52.382;9.020;2024-03-02T18:16:31;13.00;99.90
10306;DHT22;5198;52.382;9.020;2024-03-02T18:20:48;12.90;99.90
10306;DHT22;5198;52.382;9.020;2024-03-02T18:24:52;12.80;99.90
10306;DHT22;5198;52.382;9.020;2024-03-02T18:28:55;12.60;99.90
10306;DHT22;5198;52.382;9.020;2024-03-02T18:32:58;12.60;99.90
10306;DHT22;5198;52.382;9.020;2024-03-02T18:37:02;12.50;99.90
10306;DHT22;5198;52.382;9.020;2024-03-02T18:41:08;12.40;99.90
10306;DHT22;5198;52.382;9.020;2024-03-02T18:45:12;12.40;99.90
10306;DHT22;5198;52.382;9.020;2024-03-02T18:49:15;12.30;99.90
10306;DHT22;5198;52.382;9.020;2024-03-02T18:53:20;12.20;99.90
10306;DHT22;5198;52.382;9.020;2024-03-02T18:57:24;12.20;99.90
10306;DHT22;5198;52.382;9.020;2024-03-02T19:01:28;12.10;99.90
10306;DHT22;5198;52.382;9.020;2024-03-02T19:05:34;12.00;99.90
10306;DHT22;5198;52.382;9.020;2024-03-02T19:09:37;12.00;99.90
10306;DHT22;5198;52.382;9.020;2024-03-02T19:13:41;12.00;99.90
10306;DHT22;5198;52.382;9.020;2024-03-02T19:17:57;11.90;99.90
10306;DHT22;5198;52.382;9.020;2024-03-02T19:22:04;11.90;99.90
10306;DHT22;5198;52.382;9.020;2024-03-02T19:26:13;11.80;99.90
10306;DHT22;5198;52.382;9.020;2024-03-02T19:30:24;11.70;99.90
10306;DHT22;5198;52.382;9.020;2024-03-02T19:34:27;11.70;99.90
10306;DHT22;5198;52.382;9.020;2024-03-02T19:38:37;11.60;99.90
10306;DHT22;5198;52.382;9.020;2024-03-02T19:47:07;11.60;99.90
10306;DHT22;5198;52.382;9.020;2024-03-02T19:51:10;11.50;99.90
10306;DHT22;5198;52.382;9.020;2024-03-02T19:55:19;11.50;99.90
10306;DHT22;5198;52.382;9.020;2024-03-02T19:59:31;11.40;99.90
10306;DHT22;5198;52.382;9.020;2024-03-02T20:03:35;11.40;99.90
10306;DHT22;5198;52.382;9.020;2024-03-02T20:07:39;11.30;99.90
10306;DHT22;5198;52.382;9.020;2024-03-02T20:11:43;11.30;99.90
10306;DHT22;5198;52.382;9.020;2024-03-02T20:20:07;11.20;99.90
10306;DHT22;5198;52.382;9.020;2024-03-02T20:28:35;11.10;99.90
10306;DHT22;5198;52.382;9.020;2024-03-02T20:32:38;11.00;99.90
10306;DHT22;5198;52.382;9.020;2024-03-02T20:36:42;10.90;99.90
10306;DHT22;5198;52.382;9.020;2024-03-02T20:40:46;10.90;99.90
10306;DHT22;5198;52.382;9.020;2024-03-02T20:44:52;10.90;99.90
10306;DHT22;5198;52.382;9.020;2024-03-02T20:48:55;10.90;99.90
10306;DHT22;5198;52.382;9.020;2024-03-02T20:53:03;10.90;99.90
10306;DHT22;5198;52.382;9.020;2024-03-02T20:57:08;10.90;99.90
10306;DHT22;5198;52.382;9.020;2024-03-02T21:01:11;10.90;99.90
10306;DHT22;5198;52.382;9.020;2024-03-02T21:05:15;10.90;99.90
10306;DHT22;5198;52.382;9.020;2024-03-02T21:09:19;10.90;99.90
10306;DHT22;5198;52.382;9.020;2024-03-02T21:13:22;10.90;99.90
10306;DHT22;5198;52.382;9.020;2024-03-02T21:17:25;10.80;99.90
10306;DHT22;5198;52.382;9.020;2024-03-02T21:21:29;10.80;99.90
10306;DHT22;5198;52.382;9.020;2024-03-02T21:25:33;10.70;99.90
10306;DHT22;5198;52.382;9.020;2024-03-02T21:29:37;10.60;99.90
10306;DHT22;5198;52.382;9.020;2024-03-02T21:33:40;10.40;99.90
10306;DHT22;5198;52.382;9.020;2024-03-02T21:37:44;10.30;99.90
10306;DHT22;5198;52.382;9.020;2024-03-02T21:41:49;10.10;99.90
10306;DHT22;5198;52.382;9.020;2024-03-02T21:45:53;10.00;99.90
10306;DHT22;5198;52.382;9.020;2024-03-02T21:49:57;9.80;99.90
10306;DHT22;5198;52.382;9.020;2024-03-02T21:54:01;9.70;99.90
10306;DHT22;5198;52.382;9.020;2024-03-02T21:58:06;9.60;99.90
10306;DHT22;5198;52.382;9.020;2024-03-02T22:02:10;9.40;99.90
10306;DHT22;5198;52.382;9.020;2024-03-02T22:06:14;9.30;99.90
10306;DHT22;5198;52.382;9.020;2024-03-02T22:10:17;9.20;99.90
10306;DHT22;5198;52.382;9.020;2024-03-02T22:14:22;9.00;99.90
10306;DHT22;5198;52.382;9.020;2024-03-02T22:18:26;8.90;99.90
10306;DHT22;5198;52.382;9.020;2024-03-02T22:22:29;8.80;99.90
10306;DHT22;5198;52.382;9.020;2024-03-02T22:26:32;8.70;99.90
10306;DHT22;5198;52.382;9.020;2024-03-02T22:35:06;8.60;99.90
10306;DHT22;5198;52.382;9.020;2024-03-02T22:39:09;8.60;99.90
10306;DHT22;5198;52.382;9.020;2024-03-02T22:43:12;8.60;99.90
10306;DHT22;5198;52.382;9.020;2024-03-02T22:47:15;8.60;99.90
10306;DHT22;5198;52.382;9.020;2024-03-02T22:51:22;8.60;99.90
10306;DHT22;5198;52.382;9.020;2024-03-02T22:55:26;8.60;99.90
10306;DHT22;5198;52.382;9.020;2024-03-02T22:59:28;8.60;99.90
10306;DHT22;5198;52.382;9.020;2024-03-02T23:03:31;8.60;99.90
10306;DHT22;5198;52.382;9.020;2024-03-02T23:07:36;8.70;99.90
10306;DHT22;5198;52.382;9.020;2024-03-02T23:11:39;8.70;99.90
10306;DHT22;5198;52.382;9.020;2024-03-02T23:15:42;8.70;99.90
10306;DHT22;5198;52.382;9.020;2024-03-02T23:19:45;8.70;99.90
10306;DHT22;5198;52.382;9.020;2024-03-02T23:23:49;8.80;99.90
10306;DHT22;5198;52.382;9.020;2024-03-02T23:27:54;8.80;99.90
10306;DHT22;5198;52.382;9.020;2024-03-02T23:31:57;8.80;99.90
10306;DHT22;5198;52.382;9.020;2024-03-02T23:36:00;8.80;99.90
10306;DHT22;5198;52.382;9.020;2024-03-02T23:40:05;8.80;99.90
10306;DHT22;5198;52.382;9.020;2024-03-02T23:44:32;8.80;99.90
